Time;durP1;ratioP1;P1;durP2;ratioP2;P2;SDS_P1;SDS_P2;PMS_P1;PMS_P2;Temp;Humidity;BMP_temperature;BMP_pressure;BME280_temperature;BME280_humidity;BME280_pressure;Samples;Min_cycle;Max_cycle;Signal;HPM_P1;HPM_P2
2022/07/07 00:01:46;;;;;;;3.75;2.03;;;14.80;94.10;;;;;;5009230;28;20056;-75
2022/07/07 00:04:12;;;;;;;3.53;2.05;;;14.90;94.10;;;;;;5011045;28;20045;-75
2022/07/07 00:06:38;;;;;;;4.80;2.20;;;14.90;94.30;;;;;;5010214;28;21058;-74
2022/07/07 00:09:05;;;;;;;3.22;1.83;;;14.80;94.60;;;;;;5009827;28;20045;-74
2022/07/07 00:11:31;;;;;;;4.60;2.35;;;14.70;95.00;;;;;;5010410;28;20033;-74
2022/07/07 00:13:58;;;;;;;4.32;1.73;;;14.70;95.20;;;;;;5009603;28;20049;-74
2022/07/07 00:16:24;;;;;;;3.53;1.98;;;14.70;95.40;;;;;;5009956;28;20056;-74
2022/07/07 00:18:50;;;;;;;4.43;2.45;;;14.80;95.20;;;;;;5009864;28;20482;-74
2022/07/07 00:21:16;;;;;;;4.50;2.10;;;14.80;95.20;;;;;;5012703;28;20034;-74
2022/07/07 00:23:43;;;;;;;2.90;1.80;;;14.90;95.00;;;;;;5013279;28;20406;-74
2022/07/07 00:26:09;;;;;;;5.18;2.05;;;14.80;95.20;;;;;;5014789;28;20032;-74
2022/07/07 00:28:36;;;;;;;3.05;1.73;;;14.80;95.30;;;;;;5013785;28;20546;-75
2022/07/07 00:31:02;;;;;;;2.25;1.70;;;14.90;95.40;;;;;;5014578;28;20110;-75
2022/07/07 00:33:28;;;;;;;5.15;2.53;;;14.90;94.90;;;;;;5013249;28;20045;-77
2022/07/07 00:35:55;;;;;;;3.97;2.13;;;14.90;94.70;;;;;;5013985;28;20406;-74
2022/07/07 00:38:21;;;;;;;3.97;1.95;;;14.80;95.20;;;;;;5014212;28;20034;-74
2022/07/07 00:40:51;;;;;;;5.13;2.13;;;14.70;95.20;;;;;;4996819;28;20029;-74
2022/07/07 00:43:18;;;;;;;;;;;14.70;94.60;;;;;;5014026;28;20038;-74
2022/07/07 00:45:48;;;;;;;4.28;2.65;;;14.70;94.50;;;;;;5013098;28;19932;-75
2022/07/07 00:48:15;;;;;;;2.83;1.75;;;14.60;94.10;;;;;;5008586;28;20041;-75
2022/07/07 00:50:46;;;;;;;4.32;1.80;;;14.60;94.40;;;;;;5010213;28;20030;-75
2022/07/07 00:53:13;;;;;;;;;;;14.70;94.80;;;;;;5007267;28;20038;-74
2022/07/07 00:55:39;;;;;;;5.22;2.17;;;14.70;94.20;;;;;;5012761;28;20286;-75
2022/07/07 00:58:06;;;;;;;3.63;2.72;;;14.60;94.60;;;;;;5014097;28;20033;-74
2022/07/07 01:00:32;;;;;;;3.08;1.65;;;14.60;95.10;;;;;;5013373;28;20046;-75
2022/07/07 01:02:58;;;;;;;2.53;2.10;;;14.60;95.00;;;;;;5012222;28;20037;-75
2022/07/07 01:05:25;;;;;;;3.25;2.33;;;14.60;95.40;;;;;;5013852;28;20041;-75
2022/07/07 01:07:53;;;;;;;3.90;2.33;;;14.60;95.60;;;;;;5013150;28;20050;-74
2022/07/07 01:10:19;;;;;;;4.07;2.08;;;14.60;95.70;;;;;;5014251;28;20033;-75
2022/07/07 01:12:46;;;;;;;9.88;3.05;;;14.70;95.70;;;;;;5012574;28;20382;-75
2022/07/07 01:15:13;;;;;;;3.05;2.08;;;14.80;95.40;;;;;;5013164;28;20045;-76
2022/07/07 01:17:40;;;;;;;4.65;2.85;;;14.90;95.40;;;;;;5013465;28;20506;-75
2022/07/07 01:20:09;;;;;;;11.68;2.47;;;14.90;95.30;;;;;;5015567;28;20034;-75
2022/07/07 01:22:37;;;;;;;3.55;2.28;;;14.80;95.70;;;;;;5013927;28;20026;-75
2022/07/07 01:25:05;;;;;;;4.55;1.98;;;14.70;95.70;;;;;;5013982;28;20366;-76
2022/07/07 01:27:32;;;;;;;5.10;2.55;;;14.80;95.90;;;;;;5013221;28;20165;-76
2022/07/07 01:29:58;;;;;;;2.88;2.28;;;14.70;96.00;;;;;;5013508;28;20041;-75
2022/07/07 01:32:26;;;;;;;4.25;2.08;;;14.70;96.20;;;;;;5011656;28;20033;-77
2022/07/07 01:34:52;;;;;;;6.18;2.95;;;14.70;96.10;;;;;;5013860;28;20033;-75
2022/07/07 01:37:20;;;;;;;3.00;2.03;;;14.50;96.90;;;;;;5013427;28;20041;-75
2022/07/07 01:39:47;;;;;;;3.85;2.60;;;14.40;97.70;;;;;;5011655;28;20122;-74
2022/07/07 01:42:13;;;;;;;3.25;2.22;;;14.40;98.60;;;;;;4994748;28;20042;-74
2022/07/07 01:44:41;;;;;;;4.22;2.53;;;14.40;98.60;;;;;;5012554;28;20037;-76
2022/07/07 01:47:09;;;;;;;3.10;2.13;;;14.40;98.50;;;;;;5012962;28;20033;-75
2022/07/07 01:49:36;;;;;;;5.68;2.97;;;14.40;98.80;;;;;;5012660;28;20045;-75
2022/07/07 01:52:03;;;;;;;9.00;2.47;;;14.50;98.50;;;;;;5011928;28;20053;-76
2022/07/07 01:54:31;;;;;;;4.03;2.45;;;14.50;98.40;;;;;;5013785;28;20030;-77
2022/07/07 01:56:57;;;;;;;8.32;2.90;;;14.50;98.40;;;;;;5012973;28;20399;-76
2022/07/07 01:59:23;;;;;;;5.40;2.72;;;14.40;98.50;;;;;;5012893;28;20041;-75
2022/07/07 02:01:50;;;;;;;7.53;2.50;;;14.40;98.70;;;;;;5022859;28;20041;-78
2022/07/07 02:04:16;;;;;;;6.47;2.90;;;14.50;98.80;;;;;;5029862;28;20038;-78
2022/07/07 02:06:42;;;;;;;6.55;2.30;;;14.50;98.70;;;;;;5029175;28;20030;-76
2022/07/07 02:09:09;;;;;;;5.50;2.40;;;14.50;98.70;;;;;;5028894;28;20034;-75
2022/07/07 02:11:35;;;;;;;4.78;2.65;;;14.60;98.70;;;;;;5018271;28;20034;-77
2022/07/07 02:14:02;;;;;;;5.38;2.00;;;14.60;98.60;;;;;;5024978;28;20063;-74
2022/07/07 02:16:28;;;;;;;4.05;2.35;;;14.70;98.30;;;;;;5012344;28;20038;-78
2022/07/07 02:19:02;;;;;;;8.57;2.10;;;14.80;98.10;;;;;;5012065;28;20037;-76
2022/07/07 02:21:29;;;;;;;3.90;1.85;;;14.90;98.00;;;;;;5010663;28;20049;-76
2022/07/07 02:23:56;;;;;;;4.20;1.70;;;15.00;97.80;;;;;;5010295;28;20041;-75
2022/07/07 02:26:23;;;;;;;3.65;1.75;;;15.10;97.60;;;;;;5011168;28;20029;-75
2022/07/07 02:28:50;;;;;;;6.68;2.40;;;15.20;97.50;;;;;;5011229;28;20026;-74
2022/07/07 02:31:17;;;;;;;4.38;1.70;;;15.20;97.40;;;;;;5011967;28;20034;-75
2022/07/07 02:33:45;;;;;;;2.55;1.42;;;15.20;97.20;;;;;;5010760;28;20038;-75
2022/07/07 02:36:12;;;;;;;9.57;2.47;;;15.30;97.10;;;;;;5011178;28;20033;-75
2022/07/07 02:38:39;;;;;;;4.72;1.85;;;15.40;96.70;;;;;;5011336;28;20030;-75
2022/07/07 02:41:06;;;;;;;3.40;1.50;;;15.50;96.50;;;;;;5011437;28;20482;-75
2022/07/07 02:43:32;;;;;;;2.10;1.30;;;15.50;96.10;;;;;;5010383;28;20632;-75
2022/07/07 02:45:58;;;;;;;3.17;1.45;;;15.50;95.40;;;;;;5012524;28;20467;-75
2022/07/07 02:48:26;;;;;;;3.90;1.77;;;15.60;95.10;;;;;;5012630;28;20037;-75
2022/07/07 02:50:52;;;;;;;3.63;1.35;;;15.60;94.70;;;;;;5011707;28;20737;-75
2022/07/07 02:53:20;;;;;;;2.75;1.00;;;15.60;94.60;;;;;;5010602;28;20474;-75
2022/07/07 02:55:46;;;;;;;4.13;1.67;;;15.60;94.50;;;;;;5010880;28;20037;-74
2022/07/07 02:58:19;;;;;;;2.47;1.10;;;15.70;94.30;;;;;;5011225;28;20046;-75
2022/07/07 03:00:47;;;;;;;4.03;1.30;;;15.70;94.60;;;;;;5006621;28;20073;-75
2022/07/07 03:03:14;;;;;;;3.45;1.30;;;15.60;93.90;;;;;;5010299;28;20041;-75
2022/07/07 03:05:40;;;;;;;2.50;1.40;;;15.70;93.90;;;;;;5010948;28;20483;-75
2022/07/07 03:08:07;;;;;;;3.45;1.00;;;15.70;94.10;;;;;;5010995;28;20483;-75
2022/07/07 03:10:33;;;;;;;5.75;1.67;;;15.70;94.10;;;;;;4990628;28;20038;-75
2022/07/07 03:12:59;;;;;;;2.78;1.02;;;15.70;94.60;;;;;;5010149;28;20352;-75
2022/07/07 03:15:26;;;;;;;5.97;1.88;;;15.70;94.80;;;;;;5011318;28;20471;-74
2022/07/07 03:17:52;;;;;;;2.15;1.40;;;15.80;94.70;;;;;;5010769;28;20046;-74
2022/07/07 03:20:19;;;;;;;3.00;1.30;;;15.70;94.50;;;;;;5004881;28;20036;-74
2022/07/07 03:22:46;;;;;;;3.83;1.58;;;15.70;94.40;;;;;;5012697;28;20036;-74
2022/07/07 03:25:13;;;;;;;2.78;1.25;;;15.70;94.80;;;;;;5011074;28;20475;-74
2022/07/07 03:27:40;;;;;;;4.70;1.88;;;15.70;95.70;;;;;;5010307;28;20410;-75
2022/07/07 03:30:08;;;;;;;5.05;1.38;;;15.60;96.20;;;;;;5011329;28;20033;-76
2022/07/07 03:32:35;;;;;;;2.20;1.35;;;15.60;96.90;;;;;;5008849;28;20042;-74
2022/07/07 03:35:01;;;;;;;3.55;1.60;;;15.60;97.10;;;;;;5010812;28;20434;-75
2022/07/07 03:37:29;;;;;;;6.20;1.67;;;15.50;97.30;;;;;;5010625;28;20038;-77
2022/07/07 03:39:55;;;;;;;5.28;1.83;;;15.50;97.50;;;;;;5010220;28;20037;-74
2022/07/07 03:42:22;;;;;;;1.83;1.30;;;15.40;97.60;;;;;;5009313;28;20703;-74
2022/07/07 03:44:48;;;;;;;4.68;1.55;;;15.40;97.60;;;;;;5008606;28;20029;-74
2022/07/07 03:47:14;;;;;;;4.43;2.05;;;15.50;97.80;;;;;;5011016;28;20068;-74
2022/07/07 03:49:40;;;;;;;5.70;2.40;;;15.50;97.70;;;;;;5009734;28;20026;-74
2022/07/07 03:52:07;;;;;;;6.88;1.73;;;15.50;97.70;;;;;;5009766;28;20037;-74
2022/07/07 03:54:33;;;;;;;3.15;1.63;;;15.50;97.70;;;;;;5010522;28;20891;-74
2022/07/07 03:56:59;;;;;;;5.35;1.60;;;15.50;97.60;;;;;;5013880;28;20499;-74
2022/07/07 03:59:26;;;;;;;4.57;2.13;;;15.50;97.60;;;;;;5014741;28;20038;-75
2022/07/07 04:01:52;;;;;;;3.95;1.40;;;15.50;97.60;;;;;;5013731;28;20048;-74
2022/07/07 04:04:18;;;;;;;2.63;1.38;;;15.60;97.80;;;;;;5014518;28;20041;-74
2022/07/07 04:06:44;;;;;;;2.47;1.60;;;15.60;97.20;;;;;;5013424;28;20050;-74
2022/07/07 04:09:11;;;;;;;5.22;1.60;;;15.70;97.30;;;;;;5017018;28;20049;-75
2022/07/07 04:11:37;;;;;;;3.47;1.60;;;15.80;96.90;;;;;;5013134;28;20418;-76
2022/07/07 04:14:04;;;;;;;6.38;1.55;;;15.80;96.70;;;;;;4996589;28;20105;-77
2022/07/07 04:16:31;;;;;;;6.65;2.95;;;15.90;96.50;;;;;;5014272;28;20363;-78
2022/07/07 04:18:57;;;;;;;3.53;1.90;;;15.90;96.20;;;;;;5009892;28;20053;-76
2022/07/07 04:21:23;;;;;;;2.42;1.58;;;16.00;96.20;;;;;;4996782;28;20037;-76
2022/07/07 04:23:50;;;;;;;4.75;1.58;;;15.90;96.10;;;;;;5014137;28;20574;-76
2022/07/07 04:26:16;;;;;;;2.25;1.65;;;16.00;96.30;;;;;;5018350;28;20034;-77
2022/07/07 04:28:42;;;;;;;4.20;1.75;;;16.00;96.10;;;;;;5013526;28;20041;-76
2022/07/07 04:31:08;;;;;;;3.05;1.38;;;16.00;96.10;;;;;;5014341;28;20474;-76
2022/07/07 04:33:35;;;;;;;4.35;1.63;;;16.00;96.30;;;;;;5012858;28;20041;-77
2022/07/07 04:36:01;;;;;;;3.20;1.55;;;16.00;96.30;;;;;;5014079;28;20045;-76
2022/07/07 04:38:27;;;;;;;2.63;1.50;;;16.00;96.00;;;;;;5013654;28;20061;-77
2022/07/07 04:40:54;;;;;;;7.22;2.08;;;16.00;96.10;;;;;;5015889;28;20038;-76
2022/07/07 04:43:20;;;;;;;2.13;1.50;;;16.10;95.90;;;;;;4995174;28;20395;-76
2022/07/07 04:45:46;;;;;;;4.40;1.45;;;16.10;96.20;;;;;;5013581;28;20034;-77
2022/07/07 04:48:12;;;;;;;3.13;1.70;;;16.20;95.80;;;;;;5013851;28;20040;-76
2022/07/07 04:50:38;;;;;;;2.63;1.17;;;16.20;95.50;;;;;;4982225;28;20045;-77
2022/07/07 04:53:05;;;;;;;2.90;1.52;;;16.20;95.60;;;;;;5012934;28;20034;-76
2022/07/07 04:55:31;;;;;;;3.03;1.33;;;16.30;95.40;;;;;;4997763;28;20030;-77
2022/07/07 04:57:57;;;;;;;3.42;2.30;;;16.30;95.40;;;;;;5011990;28;20045;-79
2022/07/07 05:00:24;;;;;;;3.72;1.60;;;16.30;95.80;;;;;;5010516;28;20028;-77
2022/07/07 05:02:50;;;;;;;3.40;1.67;;;16.30;95.50;;;;;;5005943;28;20030;-76
2022/07/07 05:05:16;;;;;;;3.00;1.83;;;16.30;96.10;;;;;;5014289;28;20038;-77
2022/07/07 05:07:42;;;;;;;3.15;1.35;;;16.30;96.30;;;;;;5012610;28;20030;-77
2022/07/07 05:10:08;;;;;;;5.60;1.42;;;16.30;96.20;;;;;;5014031;28;20044;-77
2022/07/07 05:12:35;;;;;;;3.45;1.67;;;16.30;95.80;;;;;;5012943;28;20026;-76
2022/07/07 05:15:01;;;;;;;2.80;1.27;;;16.30;96.10;;;;;;5013465;28;20033;-77
2022/07/07 05:17:27;;;;;;;4.68;1.58;;;16.20;96.20;;;;;;5008051;28;20038;-78
2022/07/07 05:19:54;;;;;;;3.58;1.50;;;16.20;96.10;;;;;;5013947;28;20041;-77
2022/07/07 05:22:20;;;;;;;2.85;1.23;;;16.20;96.10;;;;;;5011928;28;20042;-77
2022/07/07 05:24:46;;;;;;;4.25;1.73;;;16.10;96.70;;;;;;5007349;28;20034;-77
2022/07/07 05:27:12;;;;;;;2.72;1.35;;;16.20;96.20;;;;;;5014026;28;20038;-76
2022/07/07 05:29:39;;;;;;;3.15;1.48;;;16.30;96.10;;;;;;5013555;28;20387;-77
2022/07/07 05:32:05;;;;;;;3.08;1.70;;;16.40;96.10;;;;;;5012596;28;20054;-77
2022/07/07 05:34:31;;;;;;;5.75;1.83;;;16.40;96.10;;;;;;4995807;28;20061;-78
2022/07/07 05:36:58;;;;;;;5.47;1.80;;;16.40;95.60;;;;;;5013482;28;20359;-77
2022/07/07 05:39:24;;;;;;;3.72;1.55;;;16.50;95.80;;;;;;5015447;28;20033;-77
2022/07/07 05:41:50;;;;;;;2.63;1.23;;;16.50;95.30;;;;;;5011858;28;20030;-76
2022/07/07 05:44:17;;;;;;;4.22;1.20;;;16.60;95.10;;;;;;5014238;28;20033;-76
2022/07/07 05:46:43;;;;;;;5.85;1.30;;;16.70;95.00;;;;;;5012450;28;20480;-76
2022/07/07 05:49:10;;;;;;;3.05;1.13;;;16.80;94.80;;;;;;5013657;28;20041;-76
2022/07/07 05:51:36;;;;;;;4.00;1.35;;;16.90;94.00;;;;;;5011875;28;20450;-75
2022/07/07 05:54:02;;;;;;;4.97;1.42;;;17.00;93.50;;;;;;5012299;28;20034;-76
2022/07/07 05:56:28;;;;;;;4.53;1.27;;;17.00;93.50;;;;;;5018194;28;20037;-77
2022/07/07 05:58:55;;;;;;;7.53;1.83;;;17.20;93.00;;;;;;5015021;28;20463;-74
2022/07/07 06:01:21;;;;;;;4.68;1.20;;;17.20;92.60;;;;;;5012088;28;20046;-74
2022/07/07 06:03:47;;;;;;;5.10;1.20;;;17.30;92.00;;;;;;5012704;28;20041;-74
2022/07/07 06:06:13;;;;;;;3.30;0.90;;;17.40;92.70;;;;;;4992889;28;20870;-72
2022/07/07 06:08:39;;;;;;;3.55;1.63;;;17.60;92.80;;;;;;5011213;28;20037;-72
2022/07/07 06:11:06;;;;;;;5.43;1.33;;;17.80;90.80;;;;;;5012739;28;20037;-74
2022/07/07 06:13:32;;;;;;;8.77;1.67;;;18.00;91.00;;;;;;5012141;28;20090;-73
2022/07/07 06:15:58;;;;;;;4.70;1.08;;;18.40;90.50;;;;;;5013065;28;20033;-74
2022/07/07 06:18:24;;;;;;;2.95;1.25;;;18.70;90.60;;;;;;5012383;28;20040;-73
2022/07/07 06:20:50;;;;;;;6.47;1.35;;;18.90;90.70;;;;;;5012290;28;20474;-73
2022/07/07 06:23:16;;;;;;;11.60;2.13;;;19.00;89.10;;;;;;5011907;28;20033;-73
2022/07/07 06:25:45;;;;;;;3.65;1.30;;;18.90;87.10;;;;;;5012284;28;20045;-73
2022/07/07 06:28:12;;;;;;;3.08;1.23;;;18.90;88.90;;;;;;5012203;28;20036;-73
2022/07/07 06:30:38;;;;;;;4.53;1.00;;;19.20;87.40;;;;;;5012628;28;20041;-73
2022/07/07 06:33:04;;;;;;;1.90;0.95;;;19.40;86.30;;;;;;5011452;28;20046;-73
2022/07/07 06:35:30;;;;;;;3.53;1.30;;;19.60;85.40;;;;;;5012294;28;20408;-73
2022/07/07 06:37:57;;;;;;;8.95;1.40;;;19.80;83.60;;;;;;5012730;28;20042;-73
2022/07/07 06:40:23;;;;;;;4.97;1.35;;;19.80;81.70;;;;;;5021503;28;20059;-73
2022/07/07 06:42:49;;;;;;;3.65;1.25;;;20.00;79.30;;;;;;5022003;28;20467;-73
2022/07/07 06:45:23;;;;;;;4.30;1.38;;;19.60;79.90;;;;;;4998342;28;20041;-73
2022/07/07 06:47:50;;;;;;;5.88;1.63;;;19.50;81.00;;;;;;5012278;28;20632;-73
2022/07/07 06:50:17;;;;;;;3.78;1.20;;;19.30;81.90;;;;;;5012407;28;20029;-73
2022/07/07 06:52:43;;;;;;;4.68;1.15;;;19.10;80.50;;;;;;5010679;28;20037;-72
2022/07/07 06:55:10;;;;;;;2.67;1.30;;;18.90;81.90;;;;;;5012296;28;20037;-73
2022/07/07 06:57:36;;;;;;;5.50;2.20;;;18.80;82.70;;;;;;5013324;28;20049;-75
2022/07/07 07:00:03;;;;;;;4.50;1.02;;;18.70;83.10;;;;;;5013029;28;20026;-73
2022/07/07 07:02:29;;;;;;;6.97;1.38;;;18.50;83.60;;;;;;5010583;28;20054;-73
2022/07/07 07:04:55;;;;;;;3.50;0.90;;;18.40;84.50;;;;;;5010657;28;20415;-73
2022/07/07 07:07:22;;;;;;;7.80;1.10;;;18.30;85.60;;;;;;5011729;28;20086;-72
2022/07/07 07:09:48;;;;;;;6.32;1.35;;;18.30;85.60;;;;;;5011042;28;20125;-73
2022/07/07 07:12:14;;;;;;;8.02;1.27;;;18.40;86.10;;;;;;5010112;28;20026;-72
2022/07/07 07:14:40;;;;;;;3.88;1.23;;;18.40;85.50;;;;;;5011881;28;20049;-73
2022/07/07 07:17:07;;;;;;;4.45;1.42;;;18.40;85.30;;;;;;5011739;28;20056;-74
2022/07/07 07:19:33;;;;;;;7.25;1.63;;;18.60;86.00;;;;;;5011683;28;20056;-73
2022/07/07 07:21:59;;;;;;;2.88;1.65;;;18.70;86.60;;;;;;5010878;28;20351;-73
2022/07/07 07:24:25;;;;;;;4.32;1.23;;;18.80;86.70;;;;;;5011611;28;20029;-74
2022/07/07 07:26:52;;;;;;;3.80;1.67;;;18.90;86.70;;;;;;5010965;28;20053;-72
2022/07/07 07:29:18;;;;;;;4.22;1.60;;;18.90;86.00;;;;;;5011893;28;20473;-73
2022/07/07 07:31:44;;;;;;;2.10;1.42;;;19.00;86.40;;;;;;5009935;28;20033;-73
2022/07/07 07:34:10;;;;;;;4.45;1.40;;;19.00;85.60;;;;;;4992915;28;20053;-73
2022/07/07 07:36:36;;;;;;;7.60;1.80;;;19.10;87.20;;;;;;5011316;28;20042;-76
2022/07/07 07:39:03;;;;;;;3.80;1.40;;;19.10;85.40;;;;;;5011425;28;20041;-73
2022/07/07 07:41:30;;;;;;;5.47;1.48;;;19.00;86.90;;;;;;5010487;28;20038;-73
2022/07/07 07:43:56;;;;;;;5.95;1.20;;;19.00;87.40;;;;;;5009937;28;20037;-73
2022/07/07 07:46:23;;;;;;;6.40;1.88;;;19.00;86.90;;;;;;5011596;28;20038;-73
2022/07/07 07:48:49;;;;;;;2.92;1.52;;;19.00;87.00;;;;;;5010907;28;20418;-73
2022/07/07 07:51:15;;;;;;;8.23;1.90;;;19.10;88.40;;;;;;5010760;28;20137;-73
2022/07/07 07:53:42;;;;;;;7.93;1.33;;;19.40;87.00;;;;;;5008069;28;20038;-73
2022/07/07 07:56:08;;;;;;;8.13;1.20;;;19.60;85.90;;;;;;5011603;28;20030;-73
2022/07/07 07:58:34;;;;;;;6.22;1.33;;;19.80;84.50;;;;;;5010946;28;20042;-73
2022/07/07 08:01:00;;;;;;;5.32;1.80;;;20.10;83.40;;;;;;5010366;28;20076;-73
2022/07/07 08:03:26;;;;;;;3.65;1.75;;;20.50;82.50;;;;;;5011399;28;20038;-73
2022/07/07 08:05:53;;;;;;;5.88;1.90;;;21.50;79.30;;;;;;5010551;28;20207;-73
2022/07/07 08:08:19;;;;;;;5.45;1.90;;;22.60;74.90;;;;;;5011298;28;20030;-73
2022/07/07 08:10:45;;;;;;;5.20;2.55;;;22.30;74.00;;;;;;5010939;28;20037;-73
2022/07/07 08:13:11;;;;;;;3.40;1.77;;;21.80;76.30;;;;;;5010404;28;20042;-73
2022/07/07 08:15:38;;;;;;;6.43;2.22;;;21.30;77.20;;;;;;4992939;28;20045;-74
2022/07/07 08:18:04;;;;;;;5.45;1.98;;;21.00;80.00;;;;;;5011630;28;20368;-73
2022/07/07 08:20:30;;;;;;;3.88;1.52;;;20.90;81.20;;;;;;5011416;28;20033;-73
2022/07/07 08:22:56;;;;;;;4.78;1.40;;;21.10;81.60;;;;;;5010604;28;20066;-72
2022/07/07 08:25:23;;;;;;;11.93;2.15;;;21.00;80.30;;;;;;5011291;28;20033;-72
2022/07/07 08:27:49;;;;;;;6.55;2.25;;;20.80;82.20;;;;;;4996198;28;20041;-73
2022/07/07 08:30:15;;;;;;;4.22;1.77;;;20.60;83.20;;;;;;5011404;28;20486;-72
2022/07/07 08:32:45;;;;;;;2.63;1.50;;;20.30;85.30;;;;;;5009057;28;20034;-73
2022/07/07 08:35:11;;;;;;;4.15;1.80;;;20.20;86.60;;;;;;5011118;28;20034;-73
2022/07/07 08:37:38;;;;;;;6.78;1.50;;;20.20;87.00;;;;;;4993803;28;20487;-73
2022/07/07 08:40:04;;;;;;;6.00;1.60;;;20.20;86.80;;;;;;5011475;28;20030;-72
2022/07/07 08:42:30;;;;;;;11.82;1.98;;;20.10;89.20;;;;;;5012034;28;20045;-73
2022/07/07 08:44:57;;;;;;;5.75;1.35;;;20.20;90.20;;;;;;5014281;28;20034;-72
2022/07/07 08:47:25;;;;;;;5.15;1.77;;;20.10;90.40;;;;;;5014642;28;20371;-72
2022/07/07 08:49:51;;;;;;;3.60;1.90;;;20.30;90.80;;;;;;5014124;28;20041;-73
2022/07/07 08:52:19;;;;;;;4.00;1.33;;;20.50;89.70;;;;;;5013963;28;20048;-72
2022/07/07 08:54:46;;;;;;;6.35;1.65;;;20.60;88.00;;;;;;5017404;28;20360;-72
2022/07/07 08:57:12;;;;;;;6.00;1.60;;;20.60;88.50;;;;;;5014290;28;20033;-74
2022/07/07 08:59:39;;;;;;;4.38;1.58;;;20.90;88.60;;;;;;5013154;28;20050;-72
2022/07/07 09:02:05;;;;;;;3.58;1.20;;;21.30;86.70;;;;;;5008734;28;20517;-72
2022/07/07 09:04:31;;;;;;;4.03;1.17;;;21.10;85.90;;;;;;5014071;28;20467;-72
2022/07/07 09:07:02;;;;;;;2.25;0.82;;;20.70;86.90;;;;;;5007063;28;20045;-72
2022/07/07 09:09:52;;;;;;;2.90;1.27;;;20.50;89.10;;;;;;5014429;28;20030;-71
2022/07/07 09:12:19;;;;;;;2.50;1.00;;;20.40;89.30;;;;;;5013057;28;20030;-73
2022/07/07 09:14:50;;;;;;;4.55;1.38;;;20.30;90.40;;;;;;5014116;28;20034;-71
2022/07/07 09:17:31;;;;;;;3.53;1.58;;;20.30;90.50;;;;;;5011297;28;20057;-72
2022/07/07 09:20:08;;;;;;;2.10;1.25;;;20.30;90.50;;;;;;5013628;28;20483;-72
2022/07/07 09:22:51;;;;;;;3.13;1.58;;;20.30;90.80;;;;;;5012158;28;20041;-73
2022/07/07 09:25:20;;;;;;;2.17;1.08;;;20.40;90.90;;;;;;5013664;28;20049;-71
2022/07/07 09:27:57;;;;;;;5.93;1.50;;;20.50;90.40;;;;;;5013428;28;20038;-72
2022/07/07 09:30:34;;;;;;;2.63;1.40;;;20.30;90.50;;;;;;5013788;28;20034;-73
2022/07/07 09:33:11;;;;;;;3.65;1.80;;;20.20;90.70;;;;;;5009889;28;20379;-72
2022/07/07 09:38:27;;;;;;;5.20;1.95;;;20.10;91.00;;;;;;5010676;28;20046;-72
2022/07/07 09:40:59;;;;;;;7.43;2.30;;;20.20;91.30;;;;;;5004929;28;20345;-73
2022/07/07 09:43:27;;;;;;;3.70;1.85;;;20.40;90.90;;;;;;5007899;28;20281;-72
2022/07/07 09:46:18;;;;;;;4.72;1.02;;;20.50;90.70;;;;;;5013170;28;20614;-73
2022/07/07 09:48:50;;;;;;;6.72;2.08;;;20.70;90.70;;;;;;5012674;28;20040;-73
2022/07/07 09:51:26;;;;;;;4.53;1.83;;;20.80;90.00;;;;;;5012114;28;20034;-73
2022/07/07 09:53:59;;;;;;;2.92;1.33;;;20.80;89.50;;;;;;5012798;28;20037;-72
2022/07/07 09:56:35;;;;;;;8.90;1.15;;;20.80;90.10;;;;;;5013617;28;20029;-73
2022/07/07 09:59:07;;;;;;;4.60;1.60;;;21.00;89.30;;;;;;5013643;28;20045;-72
2022/07/07 10:01:37;;;;;;;4.82;1.90;;;21.00;89.40;;;;;;5011567;28;20050;-73
2022/07/07 10:04:05;;;;;;;4.20;1.67;;;20.90;88.60;;;;;;5013055;28;20399;-73
2022/07/07 10:06:33;;;;;;;4.05;1.30;;;20.90;90.00;;;;;;5013567;28;20038;-73
2022/07/07 10:09:11;;;;;;;4.07;1.45;;;20.90;89.70;;;;;;5012826;28;20045;-73
2022/07/07 10:11:43;;;;;;;6.43;2.47;;;20.80;90.40;;;;;;5012048;28;20041;-73
2022/07/07 10:14:15;;;;;;;5.53;1.70;;;20.80;90.10;;;;;;5013196;28;20478;-73
2022/07/07 10:16:43;;;;;;;5.47;1.70;;;20.80;89.30;;;;;;5014482;28;20415;-73
2022/07/07 10:19:12;;;;;;;5.07;2.10;;;20.60;89.80;;;;;;5012380;28;20040;-73
2022/07/07 10:21:47;;;;;;;4.20;1.45;;;20.40;90.30;;;;;;5011564;28;20034;-73
2022/07/07 10:24:16;;;;;;;4.88;1.63;;;20.50;90.80;;;;;;5012808;28;20037;-73
2022/07/07 10:26:55;;;;;;;5.50;1.77;;;20.50;90.80;;;;;;5012626;28;20030;-72
2022/07/07 10:29:40;;;;;;;4.07;1.35;;;20.40;91.10;;;;;;5013007;28;20036;-72
2022/07/07 10:32:08;;;;;;;2.72;1.05;;;20.30;91.00;;;;;;5015024;28;20037;-72
2022/07/07 10:34:41;;;;;;;8.35;1.27;;;20.30;91.30;;;;;;5016348;28;20029;-73
2022/07/07 10:37:09;;;;;;;3.08;0.70;;;20.10;92.70;;;;;;5010738;28;20045;-73
2022/07/07 10:39:41;;;;;;;1.77;0.90;;;20.00;93.80;;;;;;5015883;28;20037;-76
2022/07/07 10:42:34;;;;;;;2.53;0.90;;;20.20;93.90;;;;;;5016205;28;20051;-72
2022/07/07 10:45:00;;;;;;;0.77;0.40;;;20.50;92.60;;;;;;5016558;28;20030;-72
2022/07/07 10:47:27;;;;;;;2.38;0.85;;;20.60;92.40;;;;;;5015319;28;20034;-72
2022/07/07 10:49:55;;;;;;;3.95;1.00;;;20.70;92.30;;;;;;5012064;28;20363;-72
2022/07/07 10:52:26;;;;;;;1.52;0.40;;;21.10;91.80;;;;;;5010897;28;20025;-72
2022/07/07 10:54:57;;;;;;;1.73;0.80;;;21.00;91.30;;;;;;5012002;28;20033;-72
2022/07/07 10:57:29;;;;;;;1.33;0.63;;;21.00;91.70;;;;;;5011191;28;20054;-74
2022/07/07 11:00:00;;;;;;;1.00;0.52;;;21.40;91.30;;;;;;5007207;28;20424;-73
2022/07/07 11:02:34;;;;;;;3.58;1.02;;;21.90;90.80;;;;;;5011920;28;20049;-72
2022/07/07 11:05:04;;;;;;;2.40;0.63;;;22.30;88.40;;;;;;5010862;28;20045;-73
2022/07/07 11:07:30;;;;;;;1.15;0.73;;;22.20;86.70;;;;;;5012211;28;20041;-72
2022/07/07 11:10:01;;;;;;;3.60;0.57;;;22.20;86.60;;;;;;5011528;28;20100;-73
2022/07/07 11:12:48;;;;;;;6.97;1.08;;;21.70;86.90;;;;;;5021766;28;20030;-72
2022/07/07 11:15:22;;;;;;;3.92;1.13;;;20.70;90.10;;;;;;5029317;28;20037;-71
2022/07/07 11:18:09;;;;;;;3.17;0.50;;;19.30;97.20;;;;;;5011267;28;20068;-72
2022/07/07 11:20:36;;;;;;;3.55;0.45;;;18.40;99.90;;;;;;5013014;28;20141;-75
2022/07/07 11:23:14;;;;;;;4.28;1.23;;;18.00;99.90;;;;;;5013385;28;20045;-72
2022/07/07 11:25:41;;;;;;;3.58;0.85;;;17.90;99.90;;;;;;5011688;28;20493;-72
2022/07/07 11:28:09;;;;;;;5.10;0.63;;;17.70;99.90;;;;;;5011967;28;20036;-72
2022/07/07 11:30:39;;;;;;;2.60;0.65;;;17.80;99.90;;;;;;5011083;28;20030;-73
2022/07/07 11:33:05;;;;;;;2.17;0.93;;;17.80;99.90;;;;;;4993235;28;20043;-72
2022/07/07 11:35:37;;;;;;;1.48;0.50;;;17.70;99.90;;;;;;4991985;28;20049;-72
2022/07/07 11:38:05;;;;;;;2.95;0.73;;;17.30;99.90;;;;;;5010405;28;20049;-72
2022/07/07 11:40:32;;;;;;;0.95;0.40;;;17.30;99.90;;;;;;5011544;28;20045;-75
2022/07/07 11:43:01;;;;;;;1.40;0.60;;;17.30;99.90;;;;;;5010564;28;20390;-73
2022/07/07 11:45:31;;;;;;;2.90;0.65;;;17.40;99.90;;;;;;5011671;28;20026;-72
2022/07/07 11:48:00;;;;;;;1.85;0.90;;;17.50;99.90;;;;;;5011348;28;20034;-72
2022/07/07 11:50:31;;;;;;;1.98;0.90;;;17.70;99.90;;;;;;5011340;28;20037;-73
2022/07/07 11:52:59;;;;;;;0.90;0.73;;;17.70;99.90;;;;;;5010981;28;20045;-73
2022/07/07 11:55:27;;;;;;;1.30;0.60;;;17.80;99.90;;;;;;5011006;28;20526;-72
2022/07/07 11:57:54;;;;;;;1.33;0.70;;;17.80;99.90;;;;;;5011619;28;20037;-72
2022/07/07 12:00:35;;;;;;;0.85;0.50;;;17.80;99.90;;;;;;5011105;28;20045;-73
2022/07/07 12:03:04;;;;;;;2.05;0.93;;;17.90;99.90;;;;;;4991778;28;20045;-73
2022/07/07 12:05:33;;;;;;;2.15;0.70;;;18.10;99.90;;;;;;5011966;28;20406;-73
2022/07/07 12:08:11;;;;;;;1.27;0.65;;;18.00;99.90;;;;;;5011386;28;20034;-72
2022/07/07 12:10:52;;;;;;;1.67;0.70;;;18.30;99.90;;;;;;5010134;28;20501;-73
2022/07/07 12:13:18;;;;;;;2.30;0.60;;;18.50;99.90;;;;;;5011724;28;20038;-73
2022/07/07 12:15:50;;;;;;;0.70;0.50;;;18.70;99.90;;;;;;5009679;28;20033;-73
2022/07/07 12:18:33;;;;;;;2.55;1.15;;;18.90;99.90;;;;;;5014828;28;20029;-72
2022/07/07 12:21:03;;;;;;;3.63;0.80;;;19.00;99.90;;;;;;5013348;28;20037;-72
2022/07/07 12:23:29;;;;;;;0.75;0.60;;;19.40;99.90;;;;;;5015136;28;20403;-72
2022/07/07 12:26:08;;;;;;;3.40;0.90;;;19.60;99.90;;;;;;5014572;28;20498;-73
2022/07/07 12:28:35;;;;;;;1.20;0.55;;;19.70;99.90;;;;;;5015077;28;20037;-72
2022/07/07 12:31:03;;;;;;;1.13;0.70;;;19.60;99.90;;;;;;5014330;28;20034;-72
2022/07/07 12:33:35;;;;;;;1.50;0.60;;;19.60;99.90;;;;;;5014725;28;20038;-73
2022/07/07 12:36:26;;;;;;;1.73;0.75;;;19.50;99.90;;;;;;5015280;28;20045;-74
2022/07/07 12:38:59;;;;;;;1.75;0.47;;;19.20;98.20;;;;;;5008845;28;20041;-72
2022/07/07 12:41:27;;;;;;;3.13;0.63;;;19.10;97.60;;;;;;5008220;28;20039;-72
2022/07/07 12:44:13;;;;;;;2.38;0.30;;;19.10;96.90;;;;;;5014238;28;20037;-72
2022/07/07 12:46:39;;;;;;;0.40;0.38;;;19.10;96.60;;;;;;5016955;28;20034;-72
2022/07/07 12:49:07;;;;;;;1.10;0.75;;;19.20;96.20;;;;;;5016323;28;20498;-73
2022/07/07 12:51:33;;;;;;;1.65;0.52;;;19.40;96.50;;;;;;5013471;28;20049;-72
2022/07/07 12:54:00;;;;;;;0.88;0.55;;;19.80;95.20;;;;;;4996594;28;20394;-71
2022/07/07 12:56:37;;;;;;;2.42;0.60;;;20.30;94.00;;;;;;5014670;28;20045;-72